Time;durP1;ratioP1;P1;durP2;ratioP2;P2;SDS_P1;SDS_P2;PMS_P1;PMS_P2;Temp;Humidity;BMP_temperature;BMP_pressure;BME280_temperature;BME280_humidity;BME280_pressure;Samples;Min_cycle;Max_cycle;Signal;HPM_P1;HPM_P2
2020/12/05 00:01:32;;;;;;;71.93;21.02;;;;;;;-0.02;92.94;100520.09;3489285;28;20056;-56
2020/12/05 00:03:14;;;;;;;55.33;20.70;;;;;;;-0.04;93.13;100521.66;3486086;28;21533;-56
2020/12/05 00:04:55;;;;;;;79.53;24.67;;;;;;;-0.03;92.91;100523.41;3486800;28;20049;-43
2020/12/05 00:06:37;;;;;;;77.18;22.48;;;;;;;-0.03;92.89;100517.41;3486132;28;20049;-43
2020/12/05 00:08:19;;;;;;;69.50;21.25;;;;;;;-0.03;93.09;100522.53;3487705;28;20044;-43
2020/12/05 00:10:00;;;;;;;66.40;22.98;;;;;;;-0.03;93.28;100527.63;3487078;28;20048;-43
2020/12/05 00:11:42;;;;;;;76.20;23.60;;;;;;;-0.04;93.05;100534.41;3488552;28;20755;-43
2020/12/05 00:13:23;;;;;;;77.00;26.33;;;;;;;-0.05;93.07;100540.25;3488556;28;20071;-43
2020/12/05 00:15:05;;;;;;;73.43;25.10;;;;;;;-0.04;93.03;100536.94;3484279;28;20079;-43
2020/12/05 00:16:50;;;;;;;85.35;24.58;;;;;;;-0.05;93.15;100530.06;3489617;28;20516;-44
2020/12/05 00:18:31;;;;;;;68.03;23.85;;;;;;;-0.04;93.02;100539.50;3488706;28;20516;-43
2020/12/05 00:20:13;;;;;;;79.07;23.50;;;;;;;-0.03;93.37;100537.81;3489931;28;20048;-43
2020/12/05 00:21:56;;;;;;;81.05;23.70;;;;;;;-0.05;93.12;100545.38;3488129;28;20060;-43
2020/12/05 00:23:38;;;;;;;88.22;25.67;;;;;;;-0.05;93.24;100545.38;3490576;28;20048;-43
2020/12/05 00:25:19;;;;;;;76.50;23.02;;;;;;;-0.04;93.32;100533.47;3489616;28;20056;-43
2020/12/05 00:27:01;;;;;;;71.97;23.88;;;;;;;-0.04;93.03;100539.50;3487183;28;20041;-43
2020/12/05 00:28:42;;;;;;;77.32;24.85;;;;;;;-0.03;93.08;100545.47;3490509;28;20126;-41
2020/12/05 00:30:28;;;;;;;77.28;23.42;;;;;;;-0.03;93.21;100536.16;3487163;28;20072;-53
2020/12/05 00:32:10;;;;;;;90.43;29.15;;;;;;;-0.01;93.30;100543.91;3491366;28;21786;-54
2020/12/05 00:33:52;;;;;;;93.25;27.27;;;;;;;-0.02;93.28;100553.22;3487774;28;20163;-53
2020/12/05 00:35:33;;;;;;;96.28;27.92;;;;;;;-0.02;93.28;100543.03;3488081;28;20044;-52
2020/12/05 00:37:15;;;;;;;87.97;27.50;;;;;;;-0.02;93.17;100544.72;3491175;28;20053;-53
2020/12/05 00:38:57;;;;;;;97.63;29.90;;;;;;;-0.02;93.01;100550.69;3489051;28;20106;-56
2020/12/05 00:40:38;;;;;;;113.85;29.90;;;;;;;-0.04;92.87;100551.34;3487751;28;20091;-51
2020/12/05 00:42:20;;;;;;;120.25;29.50;;;;;;;-0.06;92.98;100560.56;3491477;28;20385;-54
2020/12/05 00:44:01;;;;;;;109.28;28.08;;;;;;;-0.07;93.22;100553.69;3488440;28;20068;-57
2020/12/05 00:45:43;;;;;;;91.85;26.63;;;;;;;-0.08;93.13;100552.78;3485798;28;20545;-55
2020/12/05 00:47:28;;;;;;;168.35;36.40;;;;;;;-0.08;93.00;100560.44;3489791;28;20136;-53
2020/12/05 00:49:10;;;;;;;102.07;28.73;;;;;;;-0.08;93.35;100562.13;3487926;28;20612;-56
2020/12/05 00:50:51;;;;;;;88.53;27.75;;;;;;;-0.09;93.27;100557.81;3487058;28;20052;-55
2020/12/05 00:52:34;;;;;;;106.50;29.65;;;;;;;-0.08;93.37;100554.47;3489161;28;20056;-55
2020/12/05 00:54:15;;;;;;;137.13;35.42;;;;;;;-0.08;93.39;100562.13;3487427;28;20469;-43
2020/12/05 00:55:57;;;;;;;138.68;32.85;;;;;;;-0.11;93.30;100552.59;3487833;28;20056;-54
2020/12/05 00:57:38;;;;;;;144.75;38.33;;;;;;;-0.15;93.30;100563.34;3489607;28;20102;-54
2020/12/05 00:59:20;;;;;;;138.55;34.22;;;;;;;-0.18;93.29;100564.03;3485882;28;20053;-56
2020/12/05 01:01:02;;;;;;;126.40;32.78;;;;;;;-0.19;93.08;100549.50;3486568;28;20101;-55
2020/12/05 01:02:43;;;;;;;109.85;31.08;;;;;;;-0.18;93.39;100555.50;3490330;28;20072;-56
2020/12/05 01:04:25;;;;;;;113.95;29.33;;;;;;;-0.17;93.33;100541.94;3487248;28;20067;-53
2020/12/05 01:06:10;;;;;;;126.25;35.08;;;;;;;-0.18;93.46;100541.06;3488615;28;20079;-55
2020/12/05 01:07:52;;;;;;;123.00;32.35;;;;;;;-0.16;93.44;100539.50;3486475;28;20088;-56
2020/12/05 01:09:33;;;;;;;145.63;36.33;;;;;;;-0.17;93.44;100547.94;3487928;28;20048;-43
2020/12/05 01:11:16;;;;;;;135.60;34.50;;;;;;;-0.16;93.05;100536.09;3491162;28;20048;-43
2020/12/05 01:12:59;;;;;;;156.68;38.20;;;;;;;-0.17;93.32;100539.41;3489323;28;20040;-43
2020/12/05 01:14:40;;;;;;;134.05;33.85;;;;;;;-0.18;93.28;100540.19;3488343;28;20626;-43
2020/12/05 01:16:23;;;;;;;128.85;35.88;;;;;;;-0.19;92.99;100544.38;3488277;28;20129;-56
2020/12/05 01:18:04;;;;;;;117.80;31.88;;;;;;;-0.19;93.09;100548.63;3488748;28;20041;-54
2020/12/05 01:19:46;;;;;;;133.25;37.17;;;;;;;-0.17;93.42;100539.41;3482521;28;20425;-56
2020/12/05 01:21:27;;;;;;;135.15;33.85;;;;;;;-0.20;93.06;100541.72;3489512;28;20057;-55
2020/12/05 01:23:10;;;;;;;139.88;35.30;;;;;;;-0.21;92.99;100539.97;3487546;28;20051;-43
2020/12/05 01:24:51;;;;;;;122.50;32.65;;;;;;;-0.22;93.05;100548.38;3487718;28;20060;-43
2020/12/05 01:26:33;;;;;;;112.43;30.95;;;;;;;-0.24;93.24;100555.03;3489899;28;20076;-44
2020/12/05 01:28:14;;;;;;;136.52;34.10;;;;;;;-0.24;93.15;100562.69;3484982;28;20083;-43
2020/12/05 01:29:55;;;;;;;118.50;32.72;;;;;;;-0.26;93.20;100556.59;3488633;28;20090;-43
2020/12/05 01:31:37;;;;;;;106.80;30.20;;;;;;;-0.28;92.97;100560.72;3489310;28;20135;-43
2020/12/05 01:33:19;;;;;;;124.63;30.85;;;;;;;-0.26;93.16;100556.59;3487346;28;20052;-43
2020/12/05 01:35:01;;;;;;;117.35;31.95;;;;;;;-0.28;93.44;100553.94;3487969;28;20055;-43
2020/12/05 01:36:44;;;;;;;132.88;34.33;;;;;;;-0.29;93.01;100562.34;3488529;28;20075;-43
2020/12/05 01:38:26;;;;;;;109.05;30.88;;;;;;;-0.29;93.26;100564.03;3488554;28;20084;-43
2020/12/05 01:40:08;;;;;;;107.07;31.27;;;;;;;-0.29;93.40;100571.69;3487959;28;20107;-43
2020/12/05 01:41:51;;;;;;;139.85;32.83;;;;;;;-0.30;93.01;100563.16;3488488;28;20048;-57
2020/12/05 01:43:33;;;;;;;135.77;34.22;;;;;;;-0.29;93.53;100564.03;3484604;28;20497;-56
2020/12/05 01:45:14;;;;;;;127.03;32.58;;;;;;;-0.29;93.26;100554.72;3490151;28;20045;-54
2020/12/05 01:46:56;;;;;;;127.15;33.25;;;;;;;-0.28;93.44;100558.16;3487105;28;20509;-56
2020/12/05 01:48:38;;;;;;;104.13;31.92;;;;;;;-0.27;93.38;100549.72;3489749;28;20051;-56
2020/12/05 01:50:20;;;;;;;154.27;36.53;;;;;;;-0.29;93.31;100564.91;3490386;28;20129;-54
2020/12/05 01:52:01;;;;;;;128.77;33.78;;;;;;;-0.30;93.43;100555.50;3489222;28;20052;-55
2020/12/05 01:53:43;;;;;;;130.60;32.00;;;;;;;-0.30;93.34;100559.72;3484838;28;20045;-43
2020/12/05 01:55:25;;;;;;;142.48;33.65;;;;;;;-0.30;93.17;100550.41;3489872;28;20119;-43
2020/12/05 01:57:06;;;;;;;126.90;32.35;;;;;;;-0.28;93.22;100555.63;3486073;28;20099;-42
2020/12/05 01:58:48;;;;;;;138.63;34.92;;;;;;;-0.29;93.22;100554.72;3487019;28;20110;-44
2020/12/05 02:00:30;;;;;;;126.75;35.30;;;;;;;-0.27;93.19;100553.19;3487878;28;20500;-43
2020/12/05 02:02:11;;;;;;;133.35;35.17;;;;;;;-0.26;93.25;100554.94;3488669;28;20049;-55
2020/12/05 02:03:54;;;;;;;109.95;30.08;;;;;;;-0.26;93.43;100549.84;3490261;28;20099;-56
2020/12/05 02:05:54;;;;;;;100.00;31.50;;;;;;;-0.27;93.02;100540.44;3488032;28;20079;-57
2020/12/05 02:07:44;;;;;;;123.55;31.73;;;;;;;-0.30;93.17;100540.22;3487946;28;20048;-56
2020/12/05 02:09:30;;;;;;;108.53;29.98;;;;;;;-0.30;93.11;100540.22;3487883;28;20056;-55
2020/12/05 02:11:17;;;;;;;121.60;31.08;;;;;;;-0.33;92.77;100542.53;3487841;28;20433;-54
2020/12/05 02:13:06;;;;;;;108.18;29.92;;;;;;;-0.34;93.32;100545.88;3487603;28;20048;-55
2020/12/05 02:14:51;;;;;;;122.05;30.48;;;;;;;-0.34;93.21;100551.84;3492880;28;20378;-54
2020/12/05 02:16:34;;;;;;;117.22;30.42;;;;;;;-0.34;93.15;100549.31;3488077;28;20538;-53
2020/12/05 02:18:17;;;;;;;94.07;27.98;;;;;;;-0.34;93.04;100554.41;3486159;28;20048;-56
2020/12/05 02:19:59;;;;;;;118.00;30.67;;;;;;;-0.34;92.94;100562.06;3487572;28;20063;-54
2020/12/05 02:21:43;;;;;;;113.82;30.70;;;;;;;-0.36;93.06;100555.06;3489271;28;20068;-56
2020/12/05 02:23:27;;;;;;;119.75;30.50;;;;;;;-0.37;92.91;100573.69;3485878;28;20086;-56
2020/12/05 02:25:10;;;;;;;107.82;28.30;;;;;;;-0.39;93.02;100562.50;3491928;28;20044;-43
2020/12/05 02:26:52;;;;;;;95.15;25.90;;;;;;;-0.39;93.15;100563.38;3488088;28;20051;-43
2020/12/05 02:28:34;;;;;;;127.88;27.95;;;;;;;-0.40;93.14;100571.78;3484911;28;20094;-43
2020/12/05 02:30:15;;;;;;;103.38;28.35;;;;;;;-0.40;92.97;100561.59;3486745;28;20049;-43
2020/12/05 02:31:57;;;;;;;98.18;29.52;;;;;;;-0.41;92.81;100561.47;3488310;28;20190;-55
2020/12/05 02:33:39;;;;;;;133.05;29.35;;;;;;;-0.43;92.80;100558.84;3484974;28;20075;-53
2020/12/05 02:35:20;;;;;;;105.00;28.63;;;;;;;-0.44;92.73;100559.63;3488902;28;20647;-56
2020/12/05 02:37:09;;;;;;;108.78;28.98;;;;;;;-0.46;92.99;100556.06;3487226;28;20044;-43
2020/12/05 02:39:00;;;;;;;116.05;29.27;;;;;;;-0.45;92.85;100572.25;3485159;28;20139;-56
2020/12/05 02:40:42;;;;;;;97.72;29.05;;;;;;;-0.48;92.75;100556.72;3488226;28;20071;-54
2020/12/05 02:42:23;;;;;;;95.32;27.20;;;;;;;-0.50;92.76;100571.94;3488130;28;20068;-53
2020/12/05 02:44:05;;;;;;;107.60;29.00;;;;;;;-0.49;93.03;100573.69;3487390;28;20051;-56
2020/12/05 02:45:47;;;;;;;114.07;28.35;;;;;;;-0.48;93.10;100569.47;3488611;28;20055;-56
2020/12/05 02:47:28;;;;;;;104.85;27.80;;;;;;;-0.48;93.06;100564.38;3487159;28;20052;-53
2020/12/05 02:49:09;;;;;;;106.63;27.90;;;;;;;-0.48;93.09;100572.91;3484066;28;20072;-55
2020/12/05 02:50:51;;;;;;;107.10;29.55;;;;;;;-0.49;92.68;100575.34;3490202;28;20076;-52
2020/12/05 02:52:32;;;;;;;99.05;25.95;;;;;;;-0.50;92.89;100571.03;3487820;28;21848;-56
2020/12/05 02:54:15;;;;;;;91.07;26.23;;;;;;;-0.49;92.90;100570.25;3484903;28;20083;-53
2020/12/05 02:55:56;;;;;;;96.80;26.73;;;;;;;-0.50;93.09;100566.84;3487965;28;20379;-56
2020/12/05 02:57:38;;;;;;;93.47;26.38;;;;;;;-0.50;92.92;100569.38;3487307;28;20079;-55
2020/12/05 02:59:19;;;;;;;99.10;26.70;;;;;;;-0.50;92.95;100563.38;3487979;28;20068;-54
2020/12/05 03:01:00;;;;;;;108.93;28.80;;;;;;;-0.49;92.80;100565.16;3487688;28;20051;-53
2020/12/05 03:02:42;;;;;;;98.63;27.92;;;;;;;-0.48;93.09;100562.72;3486163;28;20091;-53
2020/12/05 03:04:23;;;;;;;81.05;24.95;;;;;;;-0.47;93.02;100574.69;3488511;28;20478;-43
2020/12/05 03:06:05;;;;;;;152.32;33.60;;;;;;;-0.48;92.83;100575.47;3485878;28;20131;-43
2020/12/05 03:07:46;;;;;;;92.57;27.38;;;;;;;-0.49;92.99;100572.81;3485592;28;20399;-43
2020/12/05 03:09:28;;;;;;;106.32;28.70;;;;;;;-0.49;92.75;100570.25;3489411;28;20155;-43
2020/12/05 03:11:10;;;;;;;105.75;26.35;;;;;;;-0.50;92.94;100577.03;3484203;28;20052;-44
2020/12/05 03:12:52;;;;;;;95.97;26.85;;;;;;;-0.49;93.01;100580.44;3487025;28;20041;-43
2020/12/05 03:14:33;;;;;;;97.85;27.50;;;;;;;-0.49;93.21;100571.13;3484441;28;20497;-44
2020/12/05 03:16:15;;;;;;;143.43;33.42;;;;;;;-0.49;93.15;100572.81;3485274;28;20121;-43
2020/12/05 03:17:56;;;;;;;123.63;29.00;;;;;;;-0.49;93.15;100567.72;3485718;28;20055;-43
2020/12/05 03:19:38;;;;;;;120.18;30.42;;;;;;;-0.49;92.97;100570.25;3486146;28;20070;-43
2020/12/05 03:21:19;;;;;;;125.40;30.90;;;;;;;-0.48;93.26;100574.56;3485276;28;20571;-44
2020/12/05 03:23:01;;;;;;;158.18;35.20;;;;;;;-0.47;93.29;100568.69;3489645;28;20063;-44
2020/12/05 03:24:43;;;;;;;109.20;29.02;;;;;;;-0.48;93.26;100575.47;3487062;28;20052;-43
2020/12/05 03:26:24;;;;;;;101.40;28.17;;;;;;;-0.48;92.99;100565.28;3486681;28;20060;-43
2020/12/05 03:28:05;;;;;;;129.23;30.80;;;;;;;-0.47;93.14;100559.38;3488079;28;20398;-44
2020/12/05 03:29:50;;;;;;;166.55;37.35;;;;;;;-0.49;92.91;100554.97;3488958;28;20106;-43
2020/12/05 03:31:42;;;;;;;106.32;29.83;;;;;;;-0.47;93.00;100563.59;3486576;28;20045;-43
2020/12/05 03:33:23;;;;;;;107.50;28.50;;;;;;;-0.49;93.05;100558.38;3487570;28;20564;-43
2020/12/05 03:35:05;;;;;;;131.60;30.13;;;;;;;-0.47;93.06;100561.94;3483936;28;20056;-43
2020/12/05 03:36:46;;;;;;;129.82;31.45;;;;;;;-0.46;93.06;100567.94;3486372;28;20040;-44
2020/12/05 03:38:28;;;;;;;149.93;37.03;;;;;;;-0.46;93.26;100568.81;3487314;28;20111;-46
2020/12/05 03:40:10;;;;;;;204.25;39.45;;;;;;;-0.47;93.06;100574.69;3484290;28;20044;-44
2020/12/05 03:41:51;;;;;;;113.40;30.23;;;;;;;-0.46;93.32;100565.38;3488656;28;20114;-43
2020/12/05 03:43:32;;;;;;;151.35;35.72;;;;;;;-0.49;93.37;100568.59;3487715;28;20084;-44
2020/12/05 03:45:14;;;;;;;158.65;37.65;;;;;;;-0.50;93.32;100564.28;3484597;28;20521;-43
2020/12/05 03:46:56;;;;;;;121.35;33.33;;;;;;;-0.49;93.47;100572.81;3484435;28;20164;-54
2020/12/05 03:48:37;;;;;;;152.15;35.70;;;;;;;-0.48;93.19;100566.91;3486676;28;20052;-52
2020/12/05 03:50:19;;;;;;;117.57;30.02;;;;;;;-0.48;93.20;100564.38;3485204;28;20136;-54
2020/12/05 03:52:00;;;;;;;133.82;32.40;;;;;;;-0.47;93.36;100566.16;3485530;28;20096;-44
2020/12/05 03:53:42;;;;;;;152.13;35.60;;;;;;;-0.46;93.27;100567.94;3487069;28;20447;-44
2020/12/05 03:55:24;;;;;;;124.13;31.55;;;;;;;-0.48;93.42;100567.81;3485011;28;20103;-43
2020/12/05 03:57:05;;;;;;;117.82;32.33;;;;;;;-0.48;93.28;100572.91;3488956;28;20687;-43
2020/12/05 03:58:47;;;;;;;124.03;33.35;;;;;;;-0.48;93.23;100566.91;3485466;28;20075;-43
2020/12/05 04:00:29;;;;;;;140.93;32.72;;;;;;;-0.48;93.26;100566.91;3482342;28;20080;-43
2020/12/05 04:02:10;;;;;;;138.77;33.40;;;;;;;-0.49;93.25;100565.16;3487229;28;20064;-43
2020/12/05 04:03:51;;;;;;;137.35;33.40;;;;;;;-0.48;93.48;100566.91;3486219;28;20536;-56
2020/12/05 04:05:33;;;;;;;142.35;34.80;;;;;;;-0.48;93.44;100569.47;3487462;28;20433;-53
2020/12/05 04:07:14;;;;;;;138.70;33.53;;;;;;;-0.48;93.50;100569.47;3485579;28;20069;-53
2020/12/05 04:08:56;;;;;;;122.03;35.08;;;;;;;-0.47;93.41;100573.81;3486400;28;20055;-55
2020/12/05 04:10:37;;;;;;;131.27;32.22;;;;;;;-0.48;93.35;100572.00;3486515;28;20048;-55
2020/12/05 04:12:19;;;;;;;129.18;32.35;;;;;;;-0.47;93.29;100567.03;3486808;28;20563;-56
2020/12/05 04:14:00;;;;;;;124.95;29.80;;;;;;;-0.46;93.46;100570.50;3485471;28;20088;-43
2020/12/05 04:15:42;;;;;;;138.95;34.92;;;;;;;-0.44;93.47;100558.72;3491159;28;20501;-55
2020/12/05 04:17:23;;;;;;;135.55;33.65;;;;;;;-0.44;93.60;100557.06;3483790;28;20053;-51
2020/12/05 04:19:05;;;;;;;161.95;34.25;;;;;;;-0.42;93.67;100568.25;3485878;28;20072;-52
2020/12/05 04:20:47;;;;;;;108.68;32.03;;;;;;;-0.42;93.33;100562.28;3486859;28;20095;-42
2020/12/05 04:22:28;;;;;;;114.35;31.02;;;;;;;-0.41;93.48;100561.47;3484960;28;20102;-44
2020/12/05 04:24:10;;;;;;;113.38;31.58;;;;;;;-0.40;93.32;100570.91;3487134;28;20053;-43
2020/12/05 04:25:52;;;;;;;115.55;32.22;;;;;;;-0.42;93.66;100560.59;3487756;28;20049;-43
2020/12/05 04:27:33;;;;;;;107.20;29.20;;;;;;;-0.40;93.69;100560.72;3485412;28;20096;-43
2020/12/05 04:29:15;;;;;;;124.05;29.60;;;;;;;-0.41;93.61;100564.94;3488529;28;20082;-43
2020/12/05 04:30:56;;;;;;;103.18;30.08;;;;;;;-0.42;93.62;100567.38;3485182;28;20403;-43
2020/12/05 04:32:38;;;;;;;115.90;31.90;;;;;;;-0.42;93.55;100575.91;3486194;28;20052;-44
2020/12/05 04:34:19;;;;;;;134.05;32.35;;;;;;;-0.42;93.60;100569.91;3488060;28;20048;-43
2020/12/05 04:36:00;;;;;;;108.55;30.88;;;;;;;-0.43;93.55;100557.94;3486057;28;20565;-45
2020/12/05 04:37:42;;;;;;;114.78;28.85;;;;;;;-0.42;93.37;100565.69;3487245;28;20045;-44
2020/12/05 04:39:23;;;;;;;106.40;27.00;;;;;;;-0.43;93.25;100563.03;3488909;28;20088;-44
2020/12/05 04:41:06;;;;;;;85.15;27.15;;;;;;;-0.44;93.40;100562.16;3485620;28;20056;-43
2020/12/05 04:42:48;;;;;;;99.97;26.80;;;;;;;-0.44;93.49;100562.16;3486708;28;20135;-43
2020/12/05 04:44:31;;;;;;;133.93;28.98;;;;;;;-0.45;93.56;100568.03;3486808;28;20053;-43
2020/12/05 04:46:15;;;;;;;118.18;29.95;;;;;;;-0.44;93.44;100571.47;3486746;28;20091;-44
2020/12/05 04:47:57;;;;;;;110.85;27.83;;;;;;;-0.44;93.32;100572.34;3486284;28;20111;-43
2020/12/05 04:49:39;;;;;;;158.52;32.15;;;;;;;-0.44;93.46;100574.91;3485422;28;20322;-43
2020/12/05 04:51:21;;;;;;;86.82;25.42;;;;;;;-0.43;93.36;100569.03;3487731;28;20049;-41
2020/12/05 04:53:11;;;;;;;111.75;27.02;;;;;;;-0.42;93.37;100575.91;3486403;28;20075;-43
2020/12/05 04:54:54;;;;;;;103.00;28.90;;;;;;;-0.42;93.23;100575.91;3486591;28;20044;-44
2020/12/05 04:56:38;;;;;;;93.75;26.52;;;;;;;-0.41;93.19;100582.78;3485615;28;20045;-53
2020/12/05 04:58:21;;;;;;;92.28;26.52;;;;;;;-0.41;93.47;100582.78;3485654;28;20064;-56
2020/12/05 05:00:04;;;;;;;138.30;31.95;;;;;;;-0.42;93.21;100581.00;3485752;28;20516;-56
2020/12/05 05:01:50;;;;;;;91.80;29.35;;;;;;;-0.41;93.18;100581.88;3485292;28;20128;-56
2020/12/05 05:03:35;;;;;;;87.25;26.42;;;;;;;-0.41;93.03;100582.78;3488442;28;20060;-56
2020/12/05 05:05:16;;;;;;;102.40;28.42;;;;;;;-0.41;93.22;100575.13;3487749;28;20073;-44
2020/12/05 05:07:03;;;;;;;92.97;27.75;;;;;;;-0.39;93.31;100580.34;3487237;28;20087;-43
2020/12/05 05:08:44;;;;;;;120.07;31.08;;;;;;;-0.40;93.10;100586.22;3490367;28;20056;-43
2020/12/05 05:10:29;;;;;;;94.05;26.33;;;;;;;-0.41;93.15;100582.78;3486635;28;20056;-43
2020/12/05 05:12:25;;;;;;;83.22;24.42;;;;;;;-0.42;93.05;100587.75;3487324;28;20048;-43
2020/12/05 05:14:13;;;;;;;116.38;27.02;;;;;;;-0.42;93.34;100587.75;3489953;28;20045;-56
2020/12/05 05:15:54;;;;;;;87.43;25.48;;;;;;;-0.42;93.32;100575.03;3486017;28;20524;-55
2020/12/05 05:17:47;;;;;;;84.25;24.63;;;;;;;-0.43;93.42;100584.34;3489399;28;20110;-43
2020/12/05 05:19:29;;;;;;;88.78;24.63;;;;;;;-0.42;93.23;100586.09;3483952;28;20080;-43
2020/12/05 05:21:29;;;;;;;90.13;26.05;;;;;;;-0.42;93.40;100583.53;3486206;28;20068;-44
2020/12/05 05:23:13;;;;;;;108.80;26.10;;;;;;;-0.42;93.37;100586.09;3486247;28;20425;-43
2020/12/05 05:25:02;;;;;;;93.22;24.77;;;;;;;-0.42;93.13;100586.09;3490061;28;20390;-43
2020/12/05 05:26:45;;;;;;;85.78;25.08;;;;;;;-0.42;93.34;100593.75;3489476;28;20394;-43
2020/12/05 05:28:29;;;;;;;74.00;24.80;;;;;;;-0.41;93.39;100585.34;3489395;28;20045;-43
2020/12/05 05:30:13;;;;;;;69.40;22.50;;;;;;;-0.40;93.09;100586.22;3488807;28;20167;-56
2020/12/05 05:32:00;;;;;;;94.28;28.30;;;;;;;-0.42;93.17;100581.00;3485283;28;20048;-56
2020/12/05 05:33:45;;;;;;;93.25;26.15;;;;;;;-0.42;93.37;100586.09;3485686;28;20398;-56
2020/12/05 05:35:36;;;;;;;94.97;25.60;;;;;;;-0.42;93.16;100588.63;3489358;28;20076;-56
2020/12/05 05:37:19;;;;;;;79.32;24.13;;;;;;;-0.42;93.17;100583.53;3486731;28;20041;-57
2020/12/05 05:39:03;;;;;;;74.75;24.65;;;;;;;-0.42;93.24;100578.44;3487790;28;20045;-56
2020/12/05 05:40:45;;;;;;;84.95;24.88;;;;;;;-0.39;93.36;100588.00;3488302;28;20082;-57
2020/12/05 05:42:27;;;;;;;145.27;30.75;;;;;;;-0.39;93.08;100590.53;3487960;28;20048;-56
2020/12/05 05:44:12;;;;;;;80.80;23.95;;;;;;;-0.40;93.35;100589.63;3489854;28;20097;-55
2020/12/05 05:45:53;;;;;;;98.15;28.58;;;;;;;-0.39;93.39;100586.31;3488552;28;20497;-55
2020/12/05 05:47:35;;;;;;;88.13;24.38;;;;;;;-0.40;93.29;100592.19;3487595;28;20052;-57
2020/12/05 05:49:25;;;;;;;107.95;28.95;;;;;;;-0.39;93.15;100590.53;3487749;28;20053;-56
2020/12/05 05:51:08;;;;;;;99.03;24.67;;;;;;;-0.39;93.37;100599.06;3494349;28;20078;-57
2020/12/05 05:52:57;;;;;;;85.78;23.95;;;;;;;-0.39;93.11;100600.75;3486244;28;20122;-56
2020/12/05 05:54:38;;;;;;;75.05;24.13;;;;;;;-0.38;93.33;100594.84;3490572;28;20059;-55
2020/12/05 05:56:19;;;;;;;104.65;24.92;;;;;;;-0.38;93.31;100603.41;3488363;28;20079;-57
2020/12/05 05:58:01;;;;;;;71.95;23.13;;;;;;;-0.36;93.32;100603.47;3487254;28;20110;-55
2020/12/05 05:59:45;;;;;;;74.80;24.45;;;;;;;-0.36;93.48;100594.19;3487722;28;20072;-56
2020/12/05 06:01:27;;;;;;;108.10;27.00;;;;;;;-0.36;93.16;100604.38;3488667;28;20048;-56
2020/12/05 06:03:18;;;;;;;83.47;25.35;;;;;;;-0.36;93.10;100603.47;3486025;28;20055;-56
2020/12/05 06:05:00;;;;;;;114.53;27.30;;;;;;;-0.34;93.28;100599.41;3487628;28;20044;-57
2020/12/05 06:06:41;;;;;;;77.07;21.92;;;;;;;-0.33;93.11;100601.16;3487958;28;20052;-56
2020/12/05 06:08:24;;;;;;;95.25;26.98;;;;;;;-0.35;93.04;100593.41;3488391;28;20072;-56
2020/12/05 06:10:08;;;;;;;96.55;24.33;;;;;;;-0.34;93.11;100599.41;3488207;28;20541;-57
2020/12/05 06:11:52;;;;;;;71.18;21.73;;;;;;;-0.32;93.40;100602.94;3485668;28;20146;-56
2020/12/05 06:13:35;;;;;;;81.80;24.92;;;;;;;-0.32;93.21;100608.06;3484307;28;20103;-44
2020/12/05 06:15:17;;;;;;;85.35;23.85;;;;;;;-0.33;92.98;100604.59;3490266;28;20052;-42
2020/12/05 06:16:59;;;;;;;94.25;27.10;;;;;;;-0.32;93.15;100602.94;3484177;28;20139;-43
2020/12/05 06:18:41;;;;;;;77.07;22.50;;;;;;;-0.32;93.40;100610.59;3488401;28;20056;-43
2020/12/05 06:20:28;;;;;;;88.65;24.85;;;;;;;-0.32;93.07;100613.16;3487651;28;20048;-44
2020/12/05 06:22:22;;;;;;;110.43;25.88;;;;;;;-0.31;93.14;100614.91;3487352;28;20053;-43
2020/12/05 06:24:06;;;;;;;98.57;26.67;;;;;;;-0.31;93.06;100621.66;3486163;28;20070;-43
2020/12/05 06:25:50;;;;;;;;;;;;;;;-0.34;93.23;100618.13;3491774;28;20048;-43
2020/12/05 06:27:35;;;;;;;127.93;26.50;;;;;;;-0.33;93.17;100613.91;3488361;28;19990;-42
2020/12/05 06:29:17;;;;;;;106.40;26.73;;;;;;;-0.33;93.01;100608.81;3487910;28;20076;-43
2020/12/05 06:30:59;;;;;;;85.38;27.05;;;;;;;-0.35;93.50;100620.56;3488759;28;20082;-43
2020/12/05 06:32:43;;;;;;;77.70;24.92;;;;;;;-0.36;93.38;100612.03;3488188;28;20140;-43
2020/12/05 06:34:41;;;;;;;167.68;34.00;;;;;;;-0.34;93.67;100627.44;3488996;28;20166;-43
2020/12/05 06:36:37;;;;;;;107.38;28.88;;;;;;;-0.34;93.50;100625.78;3489154;28;20413;-43
2020/12/05 06:38:18;;;;;;;99.32;27.48;;;;;;;-0.33;93.57;100634.31;3488871;28;20045;-43
2020/12/05 06:40:01;;;;;;;112.40;28.88;;;;;;;-0.34;93.26;100630.00;3488717;28;20048;-43
2020/12/05 06:41:45;;;;;;;110.93;29.80;;;;;;;-0.35;93.45;100631.63;3490953;28;20041;-45
2020/12/05 06:43:27;;;;;;;103.45;29.08;;;;;;;-0.36;93.41;100632.44;3488208;28;20421;-42
2020/12/05 06:45:39;;;;;;;99.28;29.67;;;;;;;-0.36;93.27;100629.88;3484030;28;20051;-42
2020/12/05 06:47:25;;;;;;;112.22;27.55;;;;;;;-0.35;93.48;100629.09;3484523;28;20044;-43
2020/12/05 06:49:07;;;;;;;115.90;27.30;;;;;;;-0.33;93.51;100635.19;3489325;28;20586;-43
2020/12/05 06:50:48;;;;;;;112.95;28.77;;;;;;;-0.33;93.53;100634.31;3484744;28;20072;-43
2020/12/05 06:52:34;;;;;;;111.57;26.95;;;;;;;-0.31;93.60;100639.53;3486313;28;20052;-40
2020/12/05 06:54:16;;;;;;;116.85;30.02;;;;;;;-0.31;93.36;100642.94;3489655;28;20049;-43
2020/12/05 06:55:57;;;;;;;110.20;26.80;;;;;;;-0.30;93.52;100639.63;3486879;28;20041;-43
2020/12/05 06:57:41;;;;;;;90.88;26.25;;;;;;;-0.30;93.70;100637.09;3485974;28;20110;-42
2020/12/05 06:59:24;;;;;;;87.07;25.00;;;;;;;-0.29;93.71;100637.97;3488941;28;20501;-42
2020/12/05 07:01:06;;;;;;;93.28;26.63;;;;;;;-0.27;93.59;100641.50;3486933;28;20132;-43
2020/12/05 07:02:56;;;;;;;103.50;29.70;;;;;;;-0.28;93.54;100653.38;3488828;28;20075;-42
2020/12/05 07:04:37;;;;;;;82.05;25.20;;;;;;;-0.26;93.67;100651.81;3488754;28;20049;-43
2020/12/05 07:06:24;;;;;;;93.35;24.73;;;;;;;-0.25;93.74;100647.59;3486680;28;20087;-43
2020/12/05 07:08:34;;;;;;;111.28;27.23;;;;;;;-0.24;93.52;100652.81;3486517;28;20048;-43
2020/12/05 07:10:17;;;;;;;84.93;24.70;;;;;;;-0.24;93.63;100652.81;3448761;28;20522;-42
2020/12/05 07:12:18;;;;;;;79.63;23.88;;;;;;;-0.21;93.48;100650.50;3487524;28;20134;-42
2020/12/05 07:14:00;;;;;;;104.75;26.95;;;;;;;-0.21;93.59;100654.72;3486985;28;20045;-43
2020/12/05 07:15:41;;;;;;;113.63;28.15;;;;;;;-0.21;93.57;100659.81;3487068;28;20072;-42
2020/12/05 07:17:23;;;;;;;89.22;24.88;;;;;;;-0.21;93.59;100655.59;3488181;28;20041;-43
2020/12/05 07:19:05;;;;;;;94.35;26.15;;;;;;;-0.20;93.64;100664.13;3484567;28;20148;-42
2020/12/05 07:20:46;;;;;;;83.50;26.75;;;;;;;-0.19;93.39;100663.34;3487271;28;20126;-42
2020/12/05 07:22:28;;;;;;;90.35;26.33;;;;;;;-0.18;93.61;100667.69;3488338;28;20056;-42
2020/12/05 07:24:10;;;;;;;102.03;25.70;;;;;;;-0.18;93.54;100670.25;3486231;28;20052;-43
2020/12/05 07:25:51;;;;;;;95.15;27.40;;;;;;;-0.19;93.51;100669.31;3488593;28;20044;-42
2020/12/05 07:27:33;;;;;;;87.40;27.13;;;;;;;-0.18;93.59;100673.66;3486098;28;20045;-40
2020/12/05 07:29:21;;;;;;;101.00;27.33;;;;;;;-0.18;93.46;100678.75;3485313;28;20056;-42
2020/12/05 07:31:03;;;;;;;115.47;30.33;;;;;;;-0.17;93.29;100687.28;3488846;28;20072;-55
2020/12/05 07:32:45;;;;;;;135.77;30.42;;;;;;;-0.19;93.57;100679.53;3489538;28;20083;-42
2020/12/05 07:34:27;;;;;;;97.10;26.85;;;;;;;-0.19;93.52;100689.72;3489264;28;20512;-54
2020/12/05 07:36:12;;;;;;;101.97;28.00;;;;;;;-0.20;93.33;100682.88;3488255;28;20075;-41
2020/12/05 07:37:53;;;;;;;100.43;25.80;;;;;;;-0.20;93.40;100687.06;3488082;28;20055;-41
2020/12/05 07:39:43;;;;;;;93.40;26.25;;;;;;;-0.19;93.68;100688.84;3490348;28;20059;-55
2020/12/05 07:41:24;;;;;;;109.28;27.25;;;;;;;-0.19;93.55;100702.47;3490764;28;20110;-56
2020/12/05 07:43:15;;;;;;;89.95;26.45;;;;;;;-0.19;93.42;100699.94;3489219;28;20052;-57
2020/12/05 07:45:03;;;;;;;89.32;23.48;;;;;;;-0.19;93.61;100696.50;3486550;28;20506;-57
2020/12/05 07:46:44;;;;;;;117.47;28.58;;;;;;;-0.18;93.52;100695.75;3490371;28;20051;-57